sensor_id;sensor_type;location;lat;lon;timestamp;P1;durP1;ratioP1;P2;durP2;ratioP2
22320;SDS011;11328;53.928;18.522;2023-05-02T00:02:23;19.00;;;9.55;;
22320;SDS011;11328;53.928;18.522;2023-05-02T00:04:51;19.70;;;9.00;;
22320;SDS011;11328;53.928;18.522;2023-05-02T00:07:17;18.27;;;9.43;;
22320;SDS011;11328;53.928;18.522;2023-05-02T00:09:45;19.90;;;9.52;;
22320;SDS011;11328;53.928;18.522;2023-05-02T00:12:12;19.05;;;10.05;;
22320;SDS011;11328;53.928;18.522;2023-05-02T00:14:39;21.08;;;10.35;;
22320;SDS011;11328;53.928;18.522;2023-05-02T00:17:06;17.60;;;9.13;;
22320;SDS011;11328;53.928;18.522;2023-05-02T00:19:39;18.88;;;9.43;;
22320;SDS011;11328;53.928;18.522;2023-05-02T00:22:06;23.73;;;10.32;;
22320;SDS011;11328;53.928;18.522;2023-05-02T00:24:33;19.45;;;10.63;;
22320;SDS011;11328;53.928;18.522;2023-05-02T00:27:00;18.52;;;9.82;;
22320;SDS011;11328;53.928;18.522;2023-05-02T00:29:27;20.27;;;10.88;;
22320;SDS011;11328;53.928;18.522;2023-05-02T00:31:54;22.65;;;10.75;;
22320;SDS011;11328;53.928;18.522;2023-05-02T00:34:22;23.17;;;10.90;;
22320;SDS011;11328;53.928;18.522;2023-05-02T00:36:58;19.40;;;9.88;;
22320;SDS011;11328;53.928;18.522;2023-05-02T00:39:25;17.23;;;9.45;;
22320;SDS011;11328;53.928;18.522;2023-05-02T00:41:55;23.30;;;9.80;;
22320;SDS011;11328;53.928;18.522;2023-05-02T00:44:25;22.83;;;9.73;;
22320;SDS011;11328;53.928;18.522;2023-05-02T00:46:53;20.10;;;9.63;;
22320;SDS011;11328;53.928;18.522;2023-05-02T00:49:22;20.10;;;10.70;;
22320;SDS011;11328;53.928;18.522;2023-05-02T00:51:49;22.45;;;10.05;;
22320;SDS011;11328;53.928;18.522;2023-05-02T00:54:16;17.88;;;8.85;;
22320;SDS011;11328;53.928;18.522;2023-05-02T00:56:43;19.23;;;8.88;;
22320;SDS011;11328;53.928;18.522;2023-05-02T00:59:11;21.70;;;9.73;;
22320;SDS011;11328;53.928;18.522;2023-05-02T01:01:52;21.52;;;9.30;;
22320;SDS011;11328;53.928;18.522;2023-05-02T01:13:12;18.45;;;8.95;;
22320;SDS011;11328;53.928;18.522;2023-05-02T01:15:43;19.40;;;8.50;;
22320;SDS011;11328;53.928;18.522;2023-05-02T01:18:12;18.73;;;8.27;;
22320;SDS011;11328;53.928;18.522;2023-05-02T01:20:43;18.88;;;8.68;;
22320;SDS011;11328;53.928;18.522;2023-05-02T01:23:17;17.13;;;8.63;;
22320;SDS011;11328;53.928;18.522;2023-05-02T01:26:26;19.15;;;8.73;;
22320;SDS011;11328;53.928;18.522;2023-05-02T01:29:07;16.05;;;8.65;;
22320;SDS011;11328;53.928;18.522;2023-05-02T01:31:40;17.60;;;8.70;;
22320;SDS011;11328;53.928;18.522;2023-05-02T01:34:11;18.70;;;8.98;;
22320;SDS011;11328;53.928;18.522;2023-05-02T01:36:42;20.45;;;9.77;;
22320;SDS011;11328;53.928;18.522;2023-05-02T01:39:13;20.88;;;10.20;;
22320;SDS011;11328;53.928;18.522;2023-05-02T01:41:47;20.52;;;10.43;;
22320;SDS011;11328;53.928;18.522;2023-05-02T01:44:17;22.13;;;10.35;;
22320;SDS011;11328;53.928;18.522;2023-05-02T01:46:48;20.45;;;10.00;;
22320;SDS011;11328;53.928;18.522;2023-05-02T01:49:18;24.23;;;10.77;;
22320;SDS011;11328;53.928;18.522;2023-05-02T01:51:48;22.85;;;10.45;;
22320;SDS011;11328;53.928;18.522;2023-05-02T01:54:16;20.85;;;10.13;;
22320;SDS011;11328;53.928;18.522;2023-05-02T01:56:46;22.63;;;9.77;;
22320;SDS011;11328;53.928;18.522;2023-05-02T01:59:16;21.60;;;10.02;;
22320;SDS011;11328;53.928;18.522;2023-05-02T02:01:47;20.20;;;9.60;;
22320;SDS011;11328;53.928;18.522;2023-05-02T02:04:18;20.00;;;9.63;;
22320;SDS011;11328;53.928;18.522;2023-05-02T02:06:49;19.02;;;9.48;;
22320;SDS011;11328;53.928;18.522;2023-05-02T02:09:27;19.80;;;9.80;;
22320;SDS011;11328;53.928;18.522;2023-05-02T02:11:58;21.58;;;10.73;;
22320;SDS011;11328;53.928;18.522;2023-05-02T02:14:38;29.65;;;14.32;;
22320;SDS011;11328;53.928;18.522;2023-05-02T02:17:12;21.65;;;10.55;;
22320;SDS011;11328;53.928;18.522;2023-05-02T02:19:52;21.25;;;10.30;;
22320;SDS011;11328;53.928;18.522;2023-05-02T02:22:22;19.85;;;9.52;;
22320;SDS011;11328;53.928;18.522;2023-05-02T02:24:52;25.40;;;9.95;;
22320;SDS011;11328;53.928;18.522;2023-05-02T02:27:20;16.15;;;8.80;;
22320;SDS011;11328;53.928;18.522;2023-05-02T02:29:47;24.10;;;9.15;;
22320;SDS011;11328;53.928;18.522;2023-05-02T02:32:14;17.25;;;8.52;;
22320;SDS011;11328;53.928;18.522;2023-05-02T02:34:41;18.00;;;8.52;;
22320;SDS011;11328;53.928;18.522;2023-05-02T02:37:18;16.33;;;9.27;;
22320;SDS011;11328;53.928;18.522;2023-05-02T02:43:09;20.42;;;10.18;;
22320;SDS011;11328;53.928;18.522;2023-05-02T02:51:52;17.83;;;9.65;;
22320;SDS011;11328;53.928;18.522;2023-05-02T02:57:32;20.60;;;9.77;;
22320;SDS011;11328;53.928;18.522;2023-05-02T03:00:19;20.00;;;10.13;;
22320;SDS011;11328;53.928;18.522;2023-05-02T03:02:52;18.45;;;8.73;;
22320;SDS011;11328;53.928;18.522;2023-05-02T03:05:22;15.82;;;8.95;;
22320;SDS011;11328;53.928;18.522;2023-05-02T03:07:49;17.80;;;9.57;;
22320;SDS011;11328;53.928;18.522;2023-05-02T03:10:17;18.40;;;9.07;;
22320;SDS011;11328;53.928;18.522;2023-05-02T03:12:44;21.83;;;10.80;;
22320;SDS011;11328;53.928;18.522;2023-05-02T03:15:22;24.45;;;12.40;;
22320;SDS011;11328;53.928;18.522;2023-05-02T03:18:23;27.33;;;13.85;;
22320;SDS011;11328;53.928;18.522;2023-05-02T03:20:50;30.70;;;14.95;;
22320;SDS011;11328;53.928;18.522;2023-05-02T03:23:17;28.33;;;15.70;;
22320;SDS011;11328;53.928;18.522;2023-05-02T03:25:44;26.35;;;13.80;;
22320;SDS011;11328;53.928;18.522;2023-05-02T03:28:11;24.25;;;13.77;;
22320;SDS011;11328;53.928;18.522;2023-05-02T03:30:38;28.60;;;13.57;;
22320;SDS011;11328;53.928;18.522;2023-05-02T03:33:06;26.98;;;13.90;;
22320;SDS011;11328;53.928;18.522;2023-05-02T03:35:34;23.85;;;13.70;;
22320;SDS011;11328;53.928;18.522;2023-05-02T03:38:01;24.90;;;13.18;;
22320;SDS011;11328;53.928;18.522;2023-05-02T03:40:27;28.52;;;14.20;;
22320;SDS011;11328;53.928;18.522;2023-05-02T03:42:54;25.83;;;13.20;;
22320;SDS011;11328;53.928;18.522;2023-05-02T03:45:21;22.23;;;11.82;;
22320;SDS011;11328;53.928;18.522;2023-05-02T03:47:48;27.00;;;10.88;;
22320;SDS011;11328;53.928;18.522;2023-05-02T03:50:15;20.88;;;10.10;;
22320;SDS011;11328;53.928;18.522;2023-05-02T03:52:43;22.63;;;10.10;;
22320;SDS011;11328;53.928;18.522;2023-05-02T03:55:10;22.35;;;9.63;;
22320;SDS011;11328;53.928;18.522;2023-05-02T03:57:37;16.83;;;9.55;;
22320;SDS011;11328;53.928;18.522;2023-05-02T04:00:04;19.90;;;9.52;;
22320;SDS011;11328;53.928;18.522;2023-05-02T04:02:32;16.98;;;9.05;;
22320;SDS011;11328;53.928;18.522;2023-05-02T04:04:59;20.20;;;8.95;;
22320;SDS011;11328;53.928;18.522;2023-05-02T04:07:26;18.20;;;8.82;;
22320;SDS011;11328;53.928;18.522;2023-05-02T04:09:53;20.63;;;9.10;;
22320;SDS011;11328;53.928;18.522;2023-05-02T04:12:20;19.95;;;8.90;;
22320;SDS011;11328;53.928;18.522;2023-05-02T04:14:47;19.75;;;8.30;;
22320;SDS011;11328;53.928;18.522;2023-05-02T04:17:14;20.23;;;9.13;;
22320;SDS011;11328;53.928;18.522;2023-05-02T04:19:41;18.23;;;8.43;;
22320;SDS011;11328;53.928;18.522;2023-05-02T04:22:08;15.20;;;9.00;;
22320;SDS011;11328;53.928;18.522;2023-05-02T04:24:35;20.15;;;8.65;;
22320;SDS011;11328;53.928;18.522;2023-05-02T04:27:02;15.30;;;7.45;;
22320;SDS011;11328;53.928;18.522;2023-05-02T04:29:29;17.50;;;8.65;;
22320;SDS011;11328;53.928;18.522;2023-05-02T04:31:56;19.67;;;8.75;;
22320;SDS011;11328;53.928;18.522;2023-05-02T04:34:22;17.13;;;8.60;;
22320;SDS011;11328;53.928;18.522;2023-05-02T04:36:49;18.05;;;9.02;;
22320;SDS011;11328;53.928;18.522;2023-05-02T04:39:16;17.77;;;9.63;;
22320;SDS011;11328;53.928;18.522;2023-05-02T04:41:43;25.00;;;10.05;;
22320;SDS011;11328;53.928;18.522;2023-05-02T04:44:11;20.83;;;9.63;;
22320;SDS011;11328;53.928;18.522;2023-05-02T04:46:38;18.33;;;9.43;;
22320;SDS011;11328;53.928;18.522;2023-05-02T04:49:05;23.65;;;9.70;;
22320;SDS011;11328;53.928;18.522;2023-05-02T04:51:32;28.27;;;9.90;;
22320;SDS011;11328;53.928;18.522;2023-05-02T04:53:59;16.98;;;9.40;;
22320;SDS011;11328;53.928;18.522;2023-05-02T04:56:26;18.55;;;9.35;;
22320;SDS011;11328;53.928;18.522;2023-05-02T04:58:53;22.50;;;9.88;;
22320;SDS011;11328;53.928;18.522;2023-05-02T05:01:20;19.83;;;9.52;;
22320;SDS011;11328;53.928;18.522;2023-05-02T05:03:49;19.52;;;9.15;;
22320;SDS011;11328;53.928;18.522;2023-05-02T05:06:16;18.02;;;9.25;;
22320;SDS011;11328;53.928;18.522;2023-05-02T05:08:44;20.02;;;9.55;;
22320;SDS011;11328;53.928;18.522;2023-05-02T05:11:11;20.08;;;9.90;;
22320;SDS011;11328;53.928;18.522;2023-05-02T05:13:38;18.48;;;9.40;;
22320;SDS011;11328;53.928;18.522;2023-05-02T05:16:05;19.17;;;9.35;;
22320;SDS011;11328;53.928;18.522;2023-05-02T05:18:33;20.73;;;9.38;;
22320;SDS011;11328;53.928;18.522;2023-05-02T05:21:06;22.40;;;9.07;;
22320;SDS011;11328;53.928;18.522;2023-05-02T05:23:34;17.02;;;8.93;;
22320;SDS011;11328;53.928;18.522;2023-05-02T05:26:09;21.70;;;9.18;;
22320;SDS011;11328;53.928;18.522;2023-05-02T05:28:37;16.13;;;9.48;;
22320;SDS011;11328;53.928;18.522;2023-05-02T05:31:05;18.77;;;9.45;;
22320;SDS011;11328;53.928;18.522;2023-05-02T05:33:37;17.13;;;9.07;;
22320;SDS011;11328;53.928;18.522;2023-05-02T05:36:08;20.58;;;8.82;;
22320;SDS011;11328;53.928;18.522;2023-05-02T05:38:42;18.52;;;9.10;;
22320;SDS011;11328;53.928;18.522;2023-05-02T05:41:09;19.25;;;9.43;;
22320;SDS011;11328;53.928;18.522;2023-05-02T05:43:36;18.20;;;9.02;;
22320;SDS011;11328;53.928;18.522;2023-05-02T05:46:03;18.70;;;9.15;;
22320;SDS011;11328;53.928;18.522;2023-05-02T05:48:30;17.63;;;8.77;;
22320;SDS011;11328;53.928;18.522;2023-05-02T05:51:01;15.30;;;8.63;;
22320;SDS011;11328;53.928;18.522;2023-05-02T05:53:32;20.98;;;9.25;;
22320;SDS011;11328;53.928;18.522;2023-05-02T05:56:07;21.85;;;10.07;;
22320;SDS011;11328;53.928;18.522;2023-05-02T05:58:39;20.58;;;8.73;;
22320;SDS011;11328;53.928;18.522;2023-05-02T06:01:07;18.70;;;9.68;;
22320;SDS011;11328;53.928;18.522;2023-05-02T06:03:34;19.33;;;9.95;;
22320;SDS011;11328;53.928;18.522;2023-05-02T06:06:01;20.27;;;10.35;;
22320;SDS011;11328;53.928;18.522;2023-05-02T06:08:29;16.52;;;9.43;;
22320;SDS011;11328;53.928;18.522;2023-05-02T06:10:56;18.70;;;9.63;;
22320;SDS011;11328;53.928;18.522;2023-05-02T06:13:23;21.88;;;9.52;;
22320;SDS011;11328;53.928;18.522;2023-05-02T06:15:51;23.08;;;8.93;;
22320;SDS011;11328;53.928;18.522;2023-05-02T06:18:18;23.67;;;9.45;;
22320;SDS011;11328;53.928;18.522;2023-05-02T06:20:45;33.28;;;9.63;;
22320;SDS011;11328;53.928;18.522;2023-05-02T06:23:12;22.52;;;9.48;;
22320;SDS011;11328;53.928;18.522;2023-05-02T06:25:38;20.08;;;8.75;;
22320;SDS011;11328;53.928;18.522;2023-05-02T06:28:05;20.75;;;9.48;;
22320;SDS011;11328;53.928;18.522;2023-05-02T06:30:32;20.13;;;9.50;;
22320;SDS011;11328;53.928;18.522;2023-05-02T06:32:59;20.08;;;9.57;;
22320;SDS011;11328;53.928;18.522;2023-05-02T06:35:29;24.85;;;9.68;;
22320;SDS011;11328;53.928;18.522;2023-05-02T06:37:56;23.77;;;9.45;;
22320;SDS011;11328;53.928;18.522;2023-05-02T06:40:23;32.90;;;10.18;;
22320;SDS011;11328;53.928;18.522;2023-05-02T06:42:50;25.70;;;9.55;;
22320;SDS011;11328;53.928;18.522;2023-05-02T06:45:17;19.75;;;9.07;;
22320;SDS011;11328;53.928;18.522;2023-05-02T06:47:44;41.42;;;10.45;;
22320;SDS011;11328;53.928;18.522;2023-05-02T06:50:11;23.95;;;9.98;;
22320;SDS011;11328;53.928;18.522;2023-05-02T06:52:38;16.23;;;9.23;;
22320;SDS011;11328;53.928;18.522;2023-05-02T06:55:05;43.75;;;10.85;;
22320;SDS011;11328;53.928;18.522;2023-05-02T06:57:33;21.50;;;10.05;;
22320;SDS011;11328;53.928;18.522;2023-05-02T07:00:00;18.73;;;9.27;;
22320;SDS011;11328;53.928;18.522;2023-05-02T07:02:27;19.40;;;9.10;;
22320;SDS011;11328;53.928;18.522;2023-05-02T07:04:54;20.33;;;9.85;;
22320;SDS011;11328;53.928;18.522;2023-05-02T07:07:21;19.13;;;9.65;;
22320;SDS011;11328;53.928;18.522;2023-05-02T07:09:48;22.33;;;9.88;;
22320;SDS011;11328;53.928;18.522;2023-05-02T07:12:15;18.92;;;10.00;;
22320;SDS011;11328;53.928;18.522;2023-05-02T07:14:42;27.08;;;9.98;;
22320;SDS011;11328;53.928;18.522;2023-05-02T07:17:12;21.15;;;9.57;;
22320;SDS011;11328;53.928;18.522;2023-05-02T07:19:41;22.75;;;9.75;;
22320;SDS011;11328;53.928;18.522;2023-05-02T07:22:23;19.60;;;9.77;;
22320;SDS011;11328;53.928;18.522;2023-05-02T07:24:58;20.25;;;9.15;;
22320;SDS011;11328;53.928;18.522;2023-05-02T07:27:27;18.42;;;10.05;;
22320;SDS011;11328;53.928;18.522;2023-05-02T07:29:55;18.75;;;9.77;;
22320;SDS011;11328;53.928;18.522;2023-05-02T07:32:22;18.55;;;9.50;;
22320;SDS011;11328;53.928;18.522;2023-05-02T07:34:53;18.30;;;10.25;;
22320;SDS011;11328;53.928;18.522;2023-05-02T07:37:21;21.27;;;9.60;;
22320;SDS011;11328;53.928;18.522;2023-05-02T07:39:48;19.05;;;9.55;;
22320;SDS011;11328;53.928;18.522;2023-05-02T07:42:15;16.48;;;9.02;;
22320;SDS011;11328;53.928;18.522;2023-05-02T07:44:42;23.38;;;9.48;;
22320;SDS011;11328;53.928;18.522;2023-05-02T07:47:10;20.50;;;9.20;;
22320;SDS011;11328;53.928;18.522;2023-05-02T07:49:37;18.83;;;9.57;;
22320;SDS011;11328;53.928;18.522;2023-05-02T07:52:04;16.45;;;9.23;;
22320;SDS011;11328;53.928;18.522;2023-05-02T07:54:33;20.92;;;9.70;;
22320;SDS011;11328;53.928;18.522;2023-05-02T07:57:01;25.02;;;10.77;;
22320;SDS011;11328;53.928;18.522;2023-05-02T07:59:30;21.17;;;10.25;;
22320;SDS011;11328;53.928;18.522;2023-05-02T08:01:57;19.23;;;9.60;;
22320;SDS011;11328;53.928;18.522;2023-05-02T08:04:24;18.50;;;9.43;;
22320;SDS011;11328;53.928;18.522;2023-05-02T08:06:52;16.85;;;9.20;;
22320;SDS011;11328;53.928;18.522;2023-05-02T08:09:21;20.83;;;9.50;;
22320;SDS011;11328;53.928;18.522;2023-05-02T08:11:48;18.45;;;9.82;;
22320;SDS011;11328;53.928;18.522;2023-05-02T08:14:16;18.40;;;9.77;;
22320;SDS011;11328;53.928;18.522;2023-05-02T08:16:43;22.60;;;10.05;;
22320;SDS011;11328;53.928;18.522;2023-05-02T08:19:12;26.80;;;10.63;;
22320;SDS011;11328;53.928;18.522;2023-05-02T08:21:39;21.10;;;10.00;;
22320;SDS011;11328;53.928;18.522;2023-05-02T08:24:06;18.65;;;9.63;;
22320;SDS011;11328;53.928;18.522;2023-05-02T08:26:33;15.88;;;9.07;;
22320;SDS011;11328;53.928;18.522;2023-05-02T08:29:00;16.65;;;9.10;;
22320;SDS011;11328;53.928;18.522;2023-05-02T08:31:29;18.83;;;9.30;;
22320;SDS011;11328;53.928;18.522;2023-05-02T08:33:57;20.00;;;8.50;;
22320;SDS011;11328;53.928;18.522;2023-05-02T08:36:24;17.48;;;8.65;;
22320;SDS011;11328;53.928;18.522;2023-05-02T08:38:54;18.65;;;8.82;;
22320;SDS011;11328;53.928;18.522;2023-05-02T08:41:21;16.13;;;8.68;;
22320;SDS011;11328;53.928;18.522;2023-05-02T08:43:49;20.02;;;8.60;;
22320;SDS011;11328;53.928;18.522;2023-05-02T08:46:16;18.20;;;9.07;;
22320;SDS011;11328;53.928;18.522;2023-05-02T08:48:44;30.67;;;9.57;;
22320;SDS011;11328;53.928;18.522;2023-05-02T08:51:15;25.02;;;8.80;;
22320;SDS011;11328;53.928;18.522;2023-05-02T08:53:45;17.20;;;8.75;;
22320;SDS011;11328;53.928;18.522;2023-05-02T08:56:12;17.05;;;8.60;;
22320;SDS011;11328;53.928;18.522;2023-05-02T08:58:40;24.00;;;9.10;;
22320;SDS011;11328;53.928;18.522;2023-05-02T09:01:09;18.35;;;7.65;;
22320;SDS011;11328;53.928;18.522;2023-05-02T09:03:43;16.83;;;7.50;;
22320;SDS011;11328;53.928;18.522;2023-05-02T09:06:19;30.35;;;8.88;;
22320;SDS011;11328;53.928;18.522;2023-05-02T09:08:49;33.45;;;7.82;;
22320;SDS011;11328;53.928;18.522;2023-05-02T09:11:20;19.35;;;7.45;;
22320;SDS011;11328;53.928;18.522;2023-05-02T09:13:48;15.02;;;7.10;;
22320;SDS011;11328;53.928;18.522;2023-05-02T09:16:24;21.23;;;7.40;;
22320;SDS011;11328;53.928;18.522;2023-05-02T09:18:57;13.23;;;6.63;;
22320;SDS011;11328;53.928;18.522;2023-05-02T09:21:25;18.40;;;7.10;;
22320;SDS011;11328;53.928;18.522;2023-05-02T09:24:17;16.20;;;6.20;;
22320;SDS011;11328;53.928;18.522;2023-05-02T09:26:55;16.80;;;6.45;;
22320;SDS011;11328;53.928;18.522;2023-05-02T09:29:33;51.30;;;6.70;;
22320;SDS011;11328;53.928;18.522;2023-05-02T09:32:04;13.60;;;6.13;;
22320;SDS011;11328;53.928;18.522;2023-05-02T09:34:32;16.20;;;5.57;;
22320;SDS011;11328;53.928;18.522;2023-05-02T09:37:00;15.18;;;5.63;;
22320;SDS011;11328;53.928;18.522;2023-05-02T09:39:29;13.30;;;5.45;;
22320;SDS011;11328;53.928;18.522;2023-05-02T09:41:57;20.10;;;5.82;;
22320;SDS011;11328;53.928;18.522;2023-05-02T09:44:25;9.95;;;4.80;;
22320;SDS011;11328;53.928;18.522;2023-05-02T09:47:02;66.18;;;8.07;;
22320;SDS011;11328;53.928;18.522;2023-05-02T09:50:05;11.43;;;4.13;;
22320;SDS011;11328;53.928;18.522;2023-05-02T09:52:27;10.98;;;3.88;;
22320;SDS011;11328;53.928;18.522;2023-05-02T09:54:54;10.70;;;3.55;;
22320;SDS011;11328;53.928;18.522;2023-05-02T09:57:37;10.73;;;3.20;;
22320;SDS011;11328;53.928;18.522;2023-05-02T10:00:07;14.57;;;2.90;;
22320;SDS011;11328;53.928;18.522;2023-05-02T10:02:35;9.10;;;2.67;;
22320;SDS011;11328;53.928;18.522;2023-05-02T10:05:04;51.05;;;4.30;;
22320;SDS011;11328;53.928;18.522;2023-05-02T10:07:36;10.05;;;2.75;;
22320;SDS011;11328;53.928;18.522;2023-05-02T10:10:05;10.07;;;2.10;;
22320;SDS011;11328;53.928;18.522;2023-05-02T10:12:36;8.48;;;2.20;;
22320;SDS011;11328;53.928;18.522;2023-05-02T10:15:05;12.55;;;1.95;;
22320;SDS011;11328;53.928;18.522;2023-05-02T10:17:47;6.60;;;1.90;;
22320;SDS011;11328;53.928;18.522;2023-05-02T10:20:18;14.63;;;2.50;;
22320;SDS011;11328;53.928;18.522;2023-05-02T10:22:58;9.10;;;3.65;;
22320;SDS011;11328;53.928;18.522;2023-05-02T10:25:27;9.77;;;1.95;;
22320;SDS011;11328;53.928;18.522;2023-05-02T10:27:55;9.15;;;2.03;;
22320;SDS011;11328;53.928;18.522;2023-05-02T10:30:28;6.03;;;1.95;;
22320;SDS011;11328;53.928;18.522;2023-05-02T10:32:57;10.85;;;2.35;;
22320;SDS011;11328;53.928;18.522;2023-05-02T10:35:26;25.67;;;2.65;;
22320;SDS011;11328;53.928;18.522;2023-05-02T10:37:53;6.82;;;2.58;;
22320;SDS011;11328;53.928;18.522;2023-05-02T10:40:21;19.50;;;3.10;;
22320;SDS011;11328;53.928;18.522;2023-05-02T10:42:48;8.57;;;2.75;;
22320;SDS011;11328;53.928;18.522;2023-05-02T10:45:33;11.23;;;2.85;;
22320;SDS011;11328;53.928;18.522;2023-05-02T10:48:22;10.90;;;2.50;;
22320;SDS011;11328;53.928;18.522;2023-05-02T10:50:55;17.80;;;3.20;;
22320;SDS011;11328;53.928;18.522;2023-05-02T10:56:18;30.42;;;4.00;;
22320;SDS011;11328;53.928;18.522;2023-05-02T10:58:52;11.05;;;3.90;;
22320;SDS011;11328;53.928;18.522;2023-05-02T11:01:39;7.97;;;4.32;;
22320;SDS011;11328;53.928;18.522;2023-05-02T11:04:10;10.25;;;5.18;;
22320;SDS011;11328;53.928;18.522;2023-05-02T11:11:50;16.15;;;5.32;;
22320;SDS011;11328;53.928;18.522;2023-05-02T11:19:27;10.38;;;6.13;;
22320;SDS011;11328;53.928;18.522;2023-05-02T11:24:47;29.10;;;7.55;;
22320;SDS011;11328;53.928;18.522;2023-05-02T11:37:52;15.90;;;6.70;;
22320;SDS011;11328;53.928;18.522;2023-05-02T11:40:24;13.32;;;6.60;;
22320;SDS011;11328;53.928;18.522;2023-05-02T11:42:55;15.13;;;7.43;;
22320;SDS011;11328;53.928;18.522;2023-05-02T11:45:34;32.72;;;7.38;;
22320;SDS011;11328;53.928;18.522;2023-05-02T11:48:05;14.40;;;6.50;;
22320;SDS011;11328;53.928;18.522;2023-05-02T11:50:40;11.73;;;6.45;;
22320;SDS011;11328;53.928;18.522;2023-05-02T11:53:16;13.25;;;6.40;;
22320;SDS011;11328;53.928;18.522;2023-05-02T11:55:51;89.85;;;10.10;;
22320;SDS011;11328;53.928;18.522;2023-05-02T11:58:30;12.32;;;6.43;;
22320;SDS011;11328;53.928;18.522;2023-05-02T12:01:09;17.33;;;6.85;;
22320;SDS011;11328;53.928;18.522;2023-05-02T12:03:41;16.33;;;7.53;;
22320;SDS011;11328;53.928;18.522;2023-05-02T12:08:42;11.07;;;6.65;;
22320;SDS011;11328;53.928;18.522;2023-05-02T12:11:13;11.25;;;6.80;;
22320;SDS011;11328;53.928;18.522;2023-05-02T12:13:46;15.20;;;6.85;;
22320;SDS011;11328;53.928;18.522;2023-05-02T12:16:15;13.07;;;6.57;;
22320;SDS011;11328;53.928;18.522;2023-05-02T12:18:43;15.13;;;6.90;;
22320;SDS011;11328;53.928;18.522;2023-05-02T12:21:12;13.15;;;5.35;;
22320;SDS011;11328;53.928;18.522;2023-05-02T12:23:40;13.10;;;5.90;;
22320;SDS011;11328;53.928;18.522;2023-05-02T12:26:15;19.63;;;6.28;;
22320;SDS011;11328;53.928;18.522;2023-05-02T12:28:49;9.88;;;5.68;;
22320;SDS011;11328;53.928;18.522;2023-05-02T12:31:17;9.00;;;5.53;;
22320;SDS011;11328;53.928;18.522;2023-05-02T12:33:45;12.02;;;5.88;;
22320;SDS011;11328;53.928;18.522;2023-05-02T12:36:13;33.10;;;6.88;;
22320;SDS011;11328;53.928;18.522;2023-05-02T12:38:46;26.30;;;6.45;;
22320;SDS011;11328;53.928;18.522;2023-05-02T12:43:58;16.85;;;5.65;;
22320;SDS011;11328;53.928;18.522;2023-05-02T12:46:26;18.20;;;4.68;;
22320;SDS011;11328;53.928;18.522;2023-05-02T12:49:07;10.98;;;3.28;;
22320;SDS011;11328;53.928;18.522;2023-05-02T12:51:38;14.98;;;3.20;;
22320;SDS011;11328;53.928;18.522;2023-05-02T12:54:06;8.20;;;2.80;;
22320;SDS011;11328;53.928;18.522;2023-05-02T12:56:39;10.02;;;2.72;;
22320;SDS011;11328;53.928;18.522;2023-05-02T12:59:09;5.20;;;2.30;;
22320;SDS011;11328;53.928;18.522;2023-05-02T13:01:55;5.75;;;1.73;;
22320;SDS011;11328;53.928;18.522;2023-05-02T13:04:35;5.65;;;1.67;;
22320;SDS011;11328;53.928;18.522;2023-05-02T13:07:06;5.00;;;1.73;;
22320;SDS011;11328;53.928;18.522;2023-05-02T13:09:33;4.63;;;1.85;;
22320;SDS011;11328;53.928;18.522;2023-05-02T13:12:00;10.90;;;2.10;;
22320;SDS011;11328;53.928;18.522;2023-05-02T13:14:29;2.72;;;1.70;;
22320;SDS011;11328;53.928;18.522;2023-05-02T13:16:56;4.03;;;1.80;;
22320;SDS011;11328;53.928;18.522;2023-05-02T13:19:24;6.47;;;2.00;;
22320;SDS011;11328;53.928;18.522;2023-05-02T13:21:54;176.80;;;9.50;;
22320;SDS011;11328;53.928;18.522;2023-05-02T13:24:21;6.57;;;1.80;;
22320;SDS011;11328;53.928;18.522;2023-05-02T13:26:48;27.35;;;3.10;;
22320;SDS011;11328;53.928;18.522;2023-05-02T13:29:16;5.75;;;1.60;;
22320;SDS011;11328;53.928;18.522;2023-05-02T13:31:43;6.53;;;1.60;;
22320;SDS011;11328;53.928;18.522;2023-05-02T13:34:10;4.25;;;1.60;;
22320;SDS011;11328;53.928;18.522;2023-05-02T13:36:37;11.80;;;1.80;;
22320;SDS011;11328;53.928;18.522;2023-05-02T13:39:11;5.50;;;1.77;;
22320;SDS011;11328;53.928;18.522;2023-05-02T13:41:39;10.90;;;2.50;;
22320;SDS011;11328;53.928;18.522;2023-05-02T13:44:07;8.77;;;2.00;;
22320;SDS011;11328;53.928;18.522;2023-05-02T13:46:34;3.53;;;1.70;;
22320;SDS011;11328;53.928;18.522;2023-05-02T13:49:03;9.55;;;1.80;;
22320;SDS011;11328;53.928;18.522;2023-05-02T13:51:33;4.65;;;1.70;;
22320;SDS011;11328;53.928;18.522;2023-05-02T13:54:00;9.55;;;1.80;;
22320;SDS011;11328;53.928;18.522;2023-05-02T13:56:28;6.28;;;1.80;;
22320;SDS011;11328;53.928;18.522;2023-05-02T13:58:54;6.00;;;1.65;;
22320;SDS011;11328;53.928;18.522;2023-05-02T14:01:22;9.55;;;2.00;;
22320;SDS011;11328;53.928;18.522;2023-05-02T14:03:51;6.45;;;2.00;;
22320;SDS011;11328;53.928;18.522;2023-05-02T14:06:18;6.18;;;2.10;;
22320;SDS011;11328;53.928;18.522;2023-05-02T14:08:45;4.93;;;2.05;;
22320;SDS011;11328;53.928;18.522;2023-05-02T14:11:12;7.80;;;2.55;;
22320;SDS011;11328;53.928;18.522;2023-05-02T14:13:39;7.90;;;2.60;;
22320;SDS011;11328;53.928;18.522;2023-05-02T14:16:07;10.77;;;2.80;;
22320;SDS011;11328;53.928;18.522;2023-05-02T14:18:34;9.05;;;2.85;;
22320;SDS011;11328;53.928;18.522;2023-05-02T14:21:01;17.88;;;3.00;;
22320;SDS011;11328;53.928;18.522;2023-05-02T14:23:29;8.75;;;2.72;;
22320;SDS011;11328;53.928;18.522;2023-05-02T14:25:56;62.17;;;5.72;;
22320;SDS011;11328;53.928;18.522;2023-05-02T14:28:23;12.55;;;3.00;;
22320;SDS011;11328;53.928;18.522;2023-05-02T14:30:52;11.43;;;2.60;;
22320;SDS011;11328;53.928;18.522;2023-05-02T14:33:19;9.57;;;2.80;;
22320;SDS011;11328;53.928;18.522;2023-05-02T14:35:47;8.65;;;2.65;;
22320;SDS011;11328;53.928;18.522;2023-05-02T14:38:14;28.63;;;3.90;;
22320;SDS011;11328;53.928;18.522;2023-05-02T14:40:44;8.82;;;3.10;;
22320;SDS011;11328;53.928;18.522;2023-05-02T14:43:11;104.40;;;7.70;;
22320;SDS011;11328;53.928;18.522;2023-05-02T14:45:39;24.67;;;4.13;;
22320;SDS011;11328;53.928;18.522;2023-05-02T14:48:06;14.00;;;3.20;;
22320;SDS011;11328;53.928;18.522;2023-05-02T14:50:35;11.07;;;3.00;;
22320;SDS011;11328;53.928;18.522;2023-05-02T14:53:04;215.43;;;14.43;;
22320;SDS011;11328;53.928;18.522;2023-05-02T14:55:35;12.63;;;3.40;;
22320;SDS011;11328;53.928;18.522;2023-05-02T14:58:06;12.27;;;3.13;;
22320;SDS011;11328;53.928;18.522;2023-05-02T15:00:37;8.40;;;2.90;;
22320;SDS011;11328;53.928;18.522;2023-05-02T15:03:37;11.02;;;3.20;;
22320;SDS011;11328;53.928;18.522;2023-05-02T15:06:24;13.25;;;3.33;;
22320;SDS011;11328;53.928;18.522;2023-05-02T15:08:58;17.85;;;3.20;;
22320;SDS011;11328;53.928;18.522;2023-05-02T15:15:19;11.02;;;3.50;;
22320;SDS011;11328;53.928;18.522;2023-05-02T15:17:50;37.53;;;4.55;;
22320;SDS011;11328;53.928;18.522;2023-05-02T15:20:18;23.88;;;3.30;;
22320;SDS011;11328;53.928;18.522;2023-05-02T15:22:45;13.95;;;3.22;;
22320;SDS011;11328;53.928;18.522;2023-05-02T15:25:12;14.27;;;3.42;;
22320;SDS011;11328;53.928;18.522;2023-05-02T15:27:39;31.00;;;4.60;;
22320;SDS011;11328;53.928;18.522;2023-05-02T15:30:07;11.88;;;3.28;;
22320;SDS011;11328;53.928;18.522;2023-05-02T15:32:36;13.48;;;3.58;;
22320;SDS011;11328;53.928;18.522;2023-05-02T15:35:05;12.68;;;3.08;;